createdAt,value
2016-10-07T00:01:02.785Z,920.94
2016-10-07T00:02:13.292Z,920.97
2016-10-07T00:03:23.931Z,921.01
2016-10-07T00:04:34.456Z,921.04
2016-10-07T00:05:45.386Z,921.07
2016-10-07T00:06:55.902Z,921.09
2016-10-07T00:08:06.431Z,921.09
2016-10-07T00:09:17.094Z,921.09
2016-10-07T00:10:27.661Z,921.11
2016-10-07T00:11:38.185Z,921.1
2016-10-07T00:12:49.140Z,921.11
2016-10-07T00:13:59.688Z,921.16
2016-10-07T00:15:10.248Z,921.15
2016-10-07T00:16:20.756Z,921.18
2016-10-07T00:17:31.309Z,921.25
2016-10-07T00:18:42.253Z,921.22
2016-10-07T00:19:52.781Z,921.26
2016-10-07T00:21:03.466Z,921.25
2016-10-07T00:22:14.012Z,921.28
2016-10-07T00:23:24.552Z,921.28
2016-10-07T00:24:35.078Z,921.28
2016-10-07T00:25:45.614Z,921.25
2016-10-07T00:26:56.241Z,921.26
2016-10-07T00:28:06.803Z,921.24
2016-10-07T00:29:17.336Z,921.32
2016-10-07T00:30:27.909Z,921.34
2016-10-07T00:31:38.442Z,921.32
2016-10-07T00:32:49.072Z,921.34
2016-10-07T00:33:59.628Z,921.37
2016-10-07T00:35:10.579Z,921.34
2016-10-07T00:36:21.115Z,921.35
2016-10-07T00:37:31.654Z,921.37
2016-10-07T00:38:42.202Z,921.39
2016-10-07T00:39:53.206Z,921.39
2016-10-07T00:41:03.763Z,921.37
2016-10-07T00:42:14.254Z,921.41
2016-10-07T00:43:24.807Z,921.38
2016-10-07T00:44:35.490Z,921.38
2016-10-07T00:45:46.088Z,921.37
2016-10-07T00:46:56.655Z,921.39
2016-10-07T00:48:07.178Z,921.35
2016-10-07T00:49:17.717Z,921.37
2016-10-07T00:50:28.257Z,921.36
2016-10-07T00:51:38.743Z,921.34
2016-10-07T00:52:49.652Z,921.32
2016-10-07T00:54:00.183Z,921.3
2016-10-07T00:55:10.735Z,921.26
2016-10-07T00:56:21.407Z,921.27
2016-10-07T00:57:32.357Z,921.33
2016-10-07T00:58:42.878Z,921.34
2016-10-07T00:59:53.835Z,921.33
2016-10-07T01:01:04.317Z,921.31
2016-10-07T01:02:15.463Z,921.34
2016-10-07T01:03:25.987Z,921.39
2016-10-07T01:04:36.547Z,921.3
2016-10-07T01:05:47.059Z,921.3
2016-10-07T01:06:57.632Z,921.32
2016-10-07T01:08:08.267Z,921.31
2016-10-07T01:09:18.812Z,921.33
2016-10-07T01:10:29.349Z,921.34
2016-10-07T01:11:39.836Z,921.38
2016-10-07T01:12:50.393Z,921.37
2016-10-07T01:14:00.948Z,921.41
2016-10-07T01:15:11.497Z,921.45
2016-10-07T01:16:22.514Z,921.42
2016-10-07T01:17:33.040Z,921.42
2016-10-07T01:18:43.556Z,921.44
2016-10-07T01:19:54.211Z,921.49
2016-10-07T01:21:04.705Z,921.53
2016-10-07T01:22:15.208Z,921.57
2016-10-07T01:23:26.164Z,921.56
2016-10-07T01:24:36.724Z,921.55
2016-10-07T01:25:47.371Z,921.53
2016-10-07T01:26:58.396Z,921.6
2016-10-07T01:28:08.949Z,921.58
2016-10-07T01:29:20.021Z,921.58
2016-10-07T01:30:30.529Z,921.57
2016-10-07T01:31:41.171Z,921.6
2016-10-07T01:32:51.699Z,921.57
2016-10-07T01:34:02.205Z,921.62
2016-10-07T01:35:12.709Z,921.62
2016-10-07T01:36:23.715Z,921.66
2016-10-07T01:37:34.661Z,921.66
2016-10-07T01:38:45.202Z,921.66
2016-10-07T01:39:55.710Z,921.63
2016-10-07T01:41:06.271Z,921.64
2016-10-07T01:42:16.786Z,921.64
2016-10-07T01:43:27.438Z,921.64
2016-10-07T01:44:38.477Z,921.64
2016-10-07T01:45:49.016Z,921.62
2016-10-07T01:46:59.569Z,921.61
2016-10-07T01:48:10.119Z,921.6
2016-10-07T01:49:21.148Z,921.67
2016-10-07T01:50:32.114Z,921.62
2016-10-07T01:51:42.677Z,921.63
2016-10-07T01:52:53.254Z,921.64
2016-10-07T01:54:03.749Z,921.67
2016-10-07T01:55:14.389Z,921.66
2016-10-07T01:56:24.917Z,921.62
2016-10-07T01:57:35.820Z,921.6
2016-10-07T01:58:46.332Z,921.59
2016-10-07T01:59:56.872Z,921.62
2016-10-07T02:01:07.464Z,921.66
2016-10-07T02:02:17.940Z,921.65
2016-10-07T02:03:28.497Z,921.61
2016-10-07T02:04:38.975Z,921.6
2016-10-07T02:05:49.506Z,921.55
2016-10-07T02:07:00.154Z,921.53
2016-10-07T02:08:10.688Z,921.51
2016-10-07T02:09:21.177Z,921.54
2016-10-07T02:10:31.713Z,921.53
2016-10-07T02:11:42.241Z,921.53
2016-10-07T02:12:52.915Z,921.53
2016-10-07T02:14:03.457Z,921.53
2016-10-07T02:15:13.949Z,921.56
2016-10-07T02:16:24.531Z,921.54
2016-10-07T02:17:35.598Z,921.59
2016-10-07T02:18:46.228Z,921.57
2016-10-07T02:19:56.800Z,921.57
2016-10-07T02:21:07.744Z,921.58
2016-10-07T02:22:18.269Z,921.59
2016-10-07T02:23:28.821Z,921.6
2016-10-07T02:24:39.436Z,921.56
2016-10-07T02:25:50.332Z,921.58
2016-10-07T02:27:00.913Z,921.59
2016-10-07T02:28:11.462Z,921.59
2016-10-07T02:29:21.992Z,921.58
2016-10-07T02:30:32.645Z,921.56
2016-10-07T02:31:43.626Z,921.58
2016-10-07T02:32:54.200Z,921.6
2016-10-07T02:34:04.782Z,921.59
2016-10-07T02:35:15.346Z,921.6
2016-10-07T02:36:26.031Z,921.57
2016-10-07T02:37:36.614Z,921.56
2016-10-07T02:38:47.202Z,921.56
2016-10-07T02:39:57.772Z,921.54
2016-10-07T02:41:08.347Z,921.53
2016-10-07T02:42:19.032Z,921.5
2016-10-07T02:43:29.615Z,921.51
2016-10-07T02:44:40.191Z,921.48
2016-10-07T02:45:50.774Z,921.53
2016-10-07T02:47:01.352Z,921.49
2016-10-07T02:48:11.922Z,921.51
2016-10-07T02:49:22.500Z,921.57
2016-10-07T02:50:33.471Z,921.55
2016-10-07T02:51:44.044Z,921.53
2016-10-07T02:52:54.619Z,921.55
2016-10-07T02:54:05.305Z,921.57
2016-10-07T02:55:15.863Z,921.57
2016-10-07T02:56:26.442Z,921.57
2016-10-07T02:57:37.013Z,921.61
2016-10-07T02:58:47.989Z,921.6
2016-10-07T02:59:58.677Z,921.56
2016-10-07T03:01:09.256Z,921.57
2016-10-07T03:02:19.849Z,921.56
2016-10-07T03:03:30.423Z,921.52
2016-10-07T03:04:40.948Z,921.56
2016-10-07T03:05:51.586Z,921.58
2016-10-07T03:07:02.162Z,921.56
2016-10-07T03:07:53.736Z,921.58
2016-10-07T03:09:04.200Z,921.56
2016-10-07T03:10:14.721Z,921.51
2016-10-07T03:11:25.283Z,921.52
2016-10-07T03:12:35.794Z,921.55
2016-10-07T03:13:46.305Z,921.56
2016-10-07T03:14:56.864Z,921.52
2016-10-07T03:16:07.379Z,921.48
2016-10-07T03:17:18.057Z,921.58
2016-10-07T03:18:28.597Z,921.51
2016-10-07T03:19:39.088Z,921.53
2016-10-07T03:20:49.567Z,921.54
2016-10-07T03:22:00.089Z,921.54
2016-10-07T03:23:10.699Z,921.56
2016-10-07T03:24:21.178Z,921.55
2016-10-07T03:25:31.699Z,921.55
2016-10-07T03:26:42.270Z,921.56
2016-10-07T03:27:52.830Z,921.57
2016-10-07T03:29:03.488Z,921.51
2016-10-07T03:30:14.012Z,921.53
2016-10-07T03:31:24.554Z,921.5
2016-10-07T03:32:35.039Z,921.5
2016-10-07T03:33:45.612Z,921.5
2016-10-07T03:34:56.162Z,921.43
2016-10-07T03:36:07.999Z,921.47
2016-10-07T03:37:18.501Z,921.43
2016-10-07T03:38:29.479Z,921.45
2016-10-07T03:39:39.947Z,921.48
2016-10-07T03:40:50.547Z,921.46
2016-10-07T03:42:01.535Z,921.47
2016-10-07T03:43:12.036Z,921.47
2016-10-07T03:44:23.009Z,921.49
2016-10-07T03:45:33.506Z,921.45
2016-10-07T03:46:44.112Z,921.44
2016-10-07T03:47:54.597Z,921.43
2016-10-07T03:49:06.084Z,921.45
2016-10-07T03:50:17.112Z,921.39
2016-10-07T03:51:27.591Z,921.38
2016-10-07T03:52:38.211Z,921.38
2016-10-07T03:53:49.168Z,921.34
2016-10-07T03:55:00.046Z,921.28
2016-10-07T03:56:10.587Z,921.29
2016-10-07T03:57:21.103Z,921.26
2016-10-07T03:58:32.099Z,921.25
2016-10-07T03:59:42.617Z,921.26
2016-10-07T04:00:53.563Z,921.22
2016-10-07T04:02:04.542Z,921.25
2016-10-07T04:03:15.499Z,921.21
2016-10-07T04:04:26.100Z,921.24
2016-10-07T04:05:36.568Z,921.19
2016-10-07T04:06:47.080Z,921.17
2016-10-07T04:07:58.090Z,921.2
2016-10-07T04:09:09.106Z,921.21
2016-10-07T04:10:19.715Z,921.22
2016-10-07T04:11:31.252Z,921.21
2016-10-07T04:12:41.777Z,921.17
2016-10-07T04:13:53.291Z,921.14
2016-10-07T04:15:03.814Z,921.14
2016-10-07T04:16:14.392Z,921.09
2016-10-07T04:17:24.936Z,921.1
2016-10-07T04:18:35.504Z,921.11
2016-10-07T04:19:46.075Z,921.09
2016-10-07T04:20:56.621Z,921.1
2016-10-07T04:22:07.173Z,921.06
2016-10-07T04:23:18.191Z,921.08
2016-10-07T04:24:29.133Z,921.05
2016-10-07T04:25:39.689Z,921.08
2016-10-07T04:26:50.213Z,921.08
2016-10-07T04:28:01.359Z,921.04
2016-10-07T04:29:12.437Z,921.06
2016-10-07T04:30:23.026Z,921.02
2016-10-07T04:31:33.586Z,921.05
2016-10-07T04:32:44.106Z,921.02
2016-10-07T04:33:54.741Z,921.02
2016-10-07T04:35:05.295Z,921.02
2016-10-07T04:36:15.800Z,921.01
2016-10-07T04:37:26.773Z,921
2016-10-07T04:38:37.339Z,920.97
2016-10-07T04:39:47.982Z,920.98
2016-10-07T04:40:58.513Z,920.98
2016-10-07T04:42:09.054Z,921.03
2016-10-07T04:43:19.578Z,921.03
2016-10-07T04:44:30.086Z,921.02
2016-10-07T04:45:40.631Z,921.03
2016-10-07T04:46:51.160Z,921.01
2016-10-07T04:48:01.677Z,921.08
2016-10-07T04:49:12.221Z,921.1
2016-10-07T04:50:22.763Z,921.08
2016-10-07T04:51:33.388Z,921.05
2016-10-07T04:52:43.920Z,921.05
2016-10-07T04:53:54.476Z,921.09
2016-10-07T04:55:05.347Z,921.07
2016-10-07T04:56:15.893Z,921.09
2016-10-07T04:57:26.561Z,921.07
2016-10-07T04:58:37.114Z,921.05
2016-10-07T04:59:47.661Z,921.06
2016-10-07T05:00:58.213Z,921.04
2016-10-07T05:02:08.763Z,921.02
2016-10-07T05:03:19.939Z,921
2016-10-07T05:04:30.521Z,920.99
2016-10-07T05:05:41.035Z,920.97
2016-10-07T05:06:51.593Z,920.96
2016-10-07T05:08:02.519Z,920.93
2016-10-07T05:09:13.025Z,920.95
2016-10-07T05:10:23.562Z,920.99
2016-10-07T05:11:34.073Z,920.96
2016-10-07T05:12:44.593Z,920.96
2016-10-07T05:13:55.083Z,921
2016-10-07T05:15:05.756Z,920.94
2016-10-07T05:16:16.319Z,920.92
2016-10-07T05:17:26.823Z,920.94
2016-10-07T05:18:37.356Z,920.87
2016-10-07T05:19:47.906Z,920.86
2016-10-07T05:20:58.927Z,920.82
2016-10-07T05:22:09.481Z,920.8
2016-10-07T05:23:20.048Z,920.82
2016-10-07T05:24:30.613Z,920.84
2016-10-07T05:25:41.184Z,920.87
2016-10-07T05:26:51.950Z,920.85
2016-10-07T05:28:02.440Z,920.86
2016-10-07T05:29:12.931Z,920.86
2016-10-07T05:30:23.487Z,920.91
2016-10-07T05:31:34.065Z,920.88
2016-10-07T05:32:44.638Z,920.88
2016-10-07T05:33:55.172Z,920.92
2016-10-07T05:35:05.695Z,920.93
2016-10-07T05:36:16.249Z,920.9
2016-10-07T05:37:26.767Z,920.88
2016-10-07T05:38:37.478Z,920.93
2016-10-07T05:39:47.998Z,920.95
2016-10-07T05:40:58.557Z,920.96
2016-10-07T05:42:09.136Z,920.97
2016-10-07T05:43:19.688Z,920.93
2016-10-07T05:44:30.344Z,920.97
2016-10-07T05:45:40.882Z,921.01
2016-10-07T05:46:51.413Z,921.04
2016-10-07T05:48:01.942Z,921
2016-10-07T05:49:12.440Z,921
2016-10-07T05:50:23.008Z,921
2016-10-07T05:51:33.983Z,920.96
2016-10-07T05:52:44.845Z,921
2016-10-07T05:53:55.697Z,920.97
2016-10-07T05:55:06.191Z,921
2016-10-07T05:56:16.697Z,921
2016-10-07T05:57:27.187Z,920.98
2016-10-07T05:58:37.671Z,920.98
2016-10-07T05:59:48.150Z,920.96
2016-10-07T06:00:58.674Z,920.96
2016-10-07T06:02:09.256Z,920.96
2016-10-07T06:03:19.774Z,920.95
2016-10-07T06:04:30.225Z,920.99
2016-10-07T06:05:40.702Z,921.02
2016-10-07T06:06:51.165Z,921.03
2016-10-07T06:08:01.729Z,921.01
2016-10-07T06:09:12.234Z,921.01
2016-10-07T06:10:22.691Z,921.04
2016-10-07T06:11:33.189Z,921
2016-10-07T06:12:43.699Z,921.03
2016-10-07T06:13:54.323Z,921
2016-10-07T06:15:04.800Z,921.05
2016-10-07T06:16:15.314Z,921.07
2016-10-07T06:17:25.821Z,921.06
2016-10-07T06:18:36.364Z,921.02
2016-10-07T06:19:46.835Z,921.05
2016-10-07T06:20:57.315Z,921.03
2016-10-07T06:22:07.824Z,921.08
2016-10-07T06:23:18.346Z,921.08
2016-10-07T06:24:28.884Z,921.12
2016-10-07T06:25:39.539Z,921.15
2016-10-07T06:26:50.474Z,921.16
2016-10-07T06:28:00.995Z,921.16
2016-10-07T06:29:11.502Z,921.21
2016-10-07T06:30:22.004Z,921.24
2016-10-07T06:31:32.631Z,921.21
2016-10-07T06:32:43.566Z,921.21
2016-10-07T06:33:54.111Z,921.17
2016-10-07T06:35:04.679Z,921.2
2016-10-07T06:36:15.216Z,921.2
2016-10-07T06:37:25.822Z,921.21
2016-10-07T06:38:36.364Z,921.25
2016-10-07T06:39:46.940Z,921.21
2016-10-07T06:40:57.471Z,921.24
2016-10-07T06:42:08.042Z,921.32
2016-10-07T06:43:18.590Z,921.29
2016-10-07T06:44:29.168Z,921.32
2016-10-07T06:45:39.686Z,921.3
2016-10-07T06:46:50.173Z,921.33
2016-10-07T06:48:00.692Z,921.34
2016-10-07T06:49:11.325Z,921.36
2016-10-07T06:50:21.830Z,921.42
2016-10-07T06:51:32.409Z,921.44
2016-10-07T06:52:42.969Z,921.42
2016-10-07T06:53:53.454Z,921.42
2016-10-07T06:55:04.432Z,921.43
2016-10-07T06:56:15.062Z,921.43
2016-10-07T06:57:25.629Z,921.45
2016-10-07T06:58:36.204Z,921.44
2016-10-07T06:59:46.776Z,921.42
2016-10-07T07:00:57.358Z,921.41
2016-10-07T07:02:08.438Z,921.43
2016-10-07T07:03:19.011Z,921.46
2016-10-07T07:04:29.608Z,921.43
2016-10-07T07:05:40.175Z,921.45
2016-10-07T07:06:50.849Z,921.46
2016-10-07T07:08:01.436Z,921.45
2016-10-07T07:09:12.019Z,921.45
2016-10-07T07:10:22.591Z,921.45
2016-10-07T07:11:33.171Z,921.42
2016-10-07T07:12:43.841Z,921.46
2016-10-07T07:13:54.416Z,921.44
2016-10-07T07:15:04.987Z,921.41
2016-10-07T07:16:15.554Z,921.44
2016-10-07T07:17:26.120Z,921.43
2016-10-07T07:18:37.192Z,921.43
2016-10-07T07:19:47.756Z,921.45
2016-10-07T07:20:58.325Z,921.44
2016-10-07T07:22:08.893Z,921.46
2016-10-07T07:23:19.467Z,921.52
2016-10-07T07:24:30.039Z,921.5
2016-10-07T07:25:40.616Z,921.51
2016-10-07T07:26:51.193Z,921.54
2016-10-07T07:28:01.765Z,921.55
2016-10-07T07:29:12.336Z,921.57
2016-10-07T07:30:23.015Z,921.56
2016-10-07T07:31:33.586Z,921.58
2016-10-07T07:32:44.177Z,921.62
2016-10-07T07:33:54.760Z,921.63
2016-10-07T07:35:05.334Z,921.63
2016-10-07T07:36:15.998Z,921.68
2016-10-07T07:37:26.575Z,921.68
2016-10-07T07:38:37.151Z,921.68
2016-10-07T07:39:47.726Z,921.7
2016-10-07T07:40:58.295Z,921.75
2016-10-07T07:42:08.965Z,921.76
2016-10-07T07:43:19.541Z,921.77
2016-10-07T07:44:30.113Z,921.77
2016-10-07T07:45:40.698Z,921.78
2016-10-07T07:46:51.763Z,921.88
2016-10-07T07:48:02.380Z,921.9
2016-10-07T07:49:12.956Z,921.91
2016-10-07T07:50:24.028Z,921.93
2016-10-07T07:51:34.596Z,921.94
2016-10-07T07:52:45.170Z,921.95
2016-10-07T07:53:55.864Z,921.97
2016-10-07T07:55:06.447Z,921.92
2016-10-07T07:56:17.024Z,921.95
2016-10-07T07:57:27.602Z,921.98
2016-10-07T07:58:38.176Z,921.97
2016-10-07T07:59:48.848Z,921.97
2016-10-07T08:00:59.426Z,921.98
2016-10-07T08:02:10.005Z,921.99
2016-10-07T08:03:20.574Z,922.02
2016-10-07T08:04:31.146Z,922.04
2016-10-07T08:05:41.813Z,922.07
2016-10-07T08:06:52.396Z,922.07
2016-10-07T08:08:02.962Z,922.08
2016-10-07T08:09:13.539Z,922.09
2016-10-07T08:10:24.108Z,922.14
2016-10-07T08:11:34.698Z,922.13
2016-10-07T08:12:45.278Z,922.14
2016-10-07T08:13:55.853Z,922.21
2016-10-07T08:15:06.422Z,922.26
2016-10-07T08:16:16.986Z,922.24
2016-10-07T08:17:27.761Z,922.25
2016-10-07T08:18:38.332Z,922.28
2016-10-07T08:19:48.897Z,922.28
2016-10-07T08:20:59.472Z,922.27
2016-10-07T08:22:10.432Z,922.33
2016-10-07T08:23:21.119Z,922.28
2016-10-07T08:24:31.688Z,922.39
2016-10-07T08:25:42.244Z,922.38
2016-10-07T08:26:52.817Z,922.4
2016-10-07T08:28:03.437Z,922.37
2016-10-07T08:29:14.099Z,922.38
2016-10-07T08:30:24.691Z,922.4
2016-10-07T08:31:35.259Z,922.41
2016-10-07T08:32:46.223Z,922.42
2016-10-07T08:33:56.828Z,922.39
2016-10-07T08:35:07.400Z,922.43
2016-10-07T08:36:18.126Z,922.43
2016-10-07T08:37:28.645Z,922.43
2016-10-07T08:38:39.181Z,922.49
2016-10-07T08:39:49.740Z,922.52
2016-10-07T08:41:00.439Z,922.54
2016-10-07T08:42:10.938Z,922.58
2016-10-07T08:43:21.431Z,922.64
2016-10-07T08:44:32.359Z,922.64
2016-10-07T08:45:43.391Z,922.61
2016-10-07T08:46:54.029Z,922.67
2016-10-07T08:48:04.583Z,922.66
2016-10-07T08:49:15.112Z,922.7
2016-10-07T08:50:25.658Z,922.69
2016-10-07T08:51:36.211Z,922.72
2016-10-07T08:52:46.741Z,922.74
2016-10-07T08:53:57.288Z,922.78
2016-10-07T08:55:07.830Z,922.82
2016-10-07T08:56:18.373Z,922.87
2016-10-07T08:57:28.920Z,922.91
2016-10-07T08:58:39.586Z,922.99
2016-10-07T08:59:50.111Z,922.91
2016-10-07T09:01:00.650Z,922.95
2016-10-07T09:02:11.198Z,922.96
2016-10-07T09:03:21.741Z,922.97
2016-10-07T09:04:32.387Z,922.99
2016-10-07T09:05:42.954Z,922.99
2016-10-07T09:06:53.468Z,923.02
2016-10-07T09:08:03.991Z,923.02
2016-10-07T09:09:14.566Z,923.06
2016-10-07T09:10:25.214Z,923.07
2016-10-07T09:11:35.742Z,923.1
2016-10-07T09:12:46.289Z,923.16
2016-10-07T09:13:56.824Z,923.15
2016-10-07T09:15:07.398Z,923.18
2016-10-07T09:16:17.881Z,923.21
2016-10-07T09:17:28.412Z,923.23
2016-10-07T09:18:38.995Z,923.24
2016-10-07T09:19:49.552Z,923.24
2016-10-07T09:21:00.095Z,923.22
2016-10-07T09:22:10.862Z,923.23
2016-10-07T09:23:21.381Z,923.24
2016-10-07T09:24:32.286Z,923.31
2016-10-07T09:25:43.336Z,923.33
2016-10-07T09:26:53.843Z,923.37
2016-10-07T09:28:04.478Z,923.37
2016-10-07T09:29:15.010Z,923.38
2016-10-07T09:30:26.053Z,923.41
2016-10-07T09:31:36.594Z,923.45
2016-10-07T09:32:47.523Z,923.42
2016-10-07T09:33:58.187Z,923.47
2016-10-07T09:35:08.715Z,923.5
2016-10-07T09:36:19.279Z,923.53
2016-10-07T09:37:29.796Z,923.55
2016-10-07T09:38:40.330Z,923.55
2016-10-07T09:39:50.869Z,923.53
2016-10-07T09:41:01.411Z,923.6
2016-10-07T09:42:11.971Z,923.6
2016-10-07T09:43:22.454Z,923.65
2016-10-07T09:44:32.963Z,923.64
2016-10-07T09:45:43.629Z,923.73
2016-10-07T09:46:54.168Z,923.74
2016-10-07T09:48:04.691Z,923.71
2016-10-07T09:49:15.179Z,923.7
2016-10-07T09:50:25.752Z,923.77
2016-10-07T09:51:36.424Z,923.79
2016-10-07T09:52:46.962Z,923.83
2016-10-07T09:53:57.479Z,923.81
2016-10-07T09:55:08.023Z,923.83
2016-10-07T09:56:18.977Z,923.96
2016-10-07T09:57:29.643Z,924.01
2016-10-07T09:58:40.147Z,923.98
2016-10-07T09:59:50.721Z,924.01
2016-10-07T10:01:01.252Z,923.98
2016-10-07T10:02:11.770Z,924.05
2016-10-07T10:03:22.303Z,924.04
2016-10-07T10:04:32.811Z,924.12
2016-10-07T10:05:43.338Z,924.2
2016-10-07T10:06:53.822Z,924.14
2016-10-07T10:08:04.358Z,924.14
2016-10-07T10:09:15.028Z,924.16
2016-10-07T10:10:25.573Z,924.26
2016-10-07T10:11:36.569Z,924.45
2016-10-07T10:12:47.146Z,924.83
2016-10-07T10:13:57.689Z,924.39
2016-10-07T10:15:08.909Z,924.45
2016-10-07T10:16:19.611Z,924.81
2016-10-07T10:17:30.336Z,925.01
2016-10-07T10:18:41.418Z,924.62
2016-10-07T10:19:52.116Z,924.41
2016-10-07T10:21:03.719Z,924.33
2016-10-07T10:22:14.472Z,924.33
2016-10-07T10:23:25.505Z,924.47
2016-10-07T10:24:36.688Z,924.48
2016-10-07T10:25:47.739Z,924.4
2016-10-07T10:26:59.350Z,924.38
2016-10-07T10:28:10.183Z,924.41
2016-10-07T10:29:21.268Z,924.53
2016-10-07T10:30:32.413Z,924.81
2016-10-07T10:31:43.141Z,924.87
2016-10-07T10:32:54.310Z,924.78
2016-10-07T10:34:05.731Z,924.69
2016-10-07T10:35:16.894Z,924.82
2016-10-07T10:36:27.639Z,924.75
2016-10-07T10:37:39.103Z,924.68
2016-10-07T10:38:49.895Z,924.68
2016-10-07T10:40:01.682Z,924.7
2016-10-07T10:41:12.414Z,924.78
2016-10-07T10:42:26.569Z,924.91
2016-10-07T10:43:37.675Z,925.1
2016-10-07T10:44:48.354Z,925.25
2016-10-07T10:45:59.042Z,925.04
2016-10-07T10:47:09.773Z,924.95
2016-10-07T10:48:21.028Z,924.93
2016-10-07T10:49:32.996Z,924.89
2016-10-07T10:50:43.802Z,924.91
2016-10-07T10:51:54.874Z,924.9
2016-10-07T10:53:05.588Z,924.98
2016-10-07T10:54:16.673Z,924.96
2016-10-07T10:55:27.940Z,925.04
2016-10-07T10:56:39.147Z,925.12
2016-10-07T10:57:50.297Z,925.07
2016-10-07T10:59:01.029Z,925.04
2016-10-07T11:00:11.797Z,925.2
2016-10-07T11:01:22.528Z,925.48
2016-10-07T11:02:33.272Z,925.58
2016-10-07T11:03:44.427Z,925.35
2016-10-07T11:04:55.065Z,925.45
2016-10-07T11:06:06.073Z,925.64
2016-10-07T11:07:16.727Z,926.06
2016-10-07T11:08:27.827Z,926.38
2016-10-07T11:09:39.389Z,926.82
2016-10-07T11:10:50.512Z,925.54
2016-10-07T11:12:01.206Z,925.33
2016-10-07T11:13:11.876Z,925.23
2016-10-07T11:14:23.437Z,925.13
2016-10-07T11:15:34.439Z,925.17
2016-10-07T11:16:46.298Z,925.22
2016-10-07T11:17:57.761Z,925.11
2016-10-07T11:19:08.879Z,925.14
2016-10-07T11:20:20.071Z,925.18
2016-10-07T11:21:31.588Z,925.12
2016-10-07T11:22:42.626Z,925.06
2016-10-07T11:23:54.048Z,925.06
2016-10-07T11:25:04.690Z,925.07
2016-10-07T11:26:15.897Z,925.05
2016-10-07T11:27:26.995Z,925.04
2016-10-07T11:28:38.493Z,925.07
2016-10-07T11:29:49.595Z,925.04
2016-10-07T11:31:00.704Z,925.04
2016-10-07T11:32:12.260Z,925.08
2016-10-07T11:33:22.954Z,925.14
2016-10-07T11:34:34.022Z,925.16
2016-10-07T11:35:44.700Z,925.14
2016-10-07T11:36:55.425Z,925.12
2016-10-07T11:38:06.589Z,925.1
2016-10-07T11:39:17.804Z,925.1
2016-10-07T11:40:28.531Z,925.11
2016-10-07T11:41:40.353Z,925.1
2016-10-07T11:42:51.462Z,925.09
2016-10-07T11:44:02.325Z,925.09
2016-10-07T11:45:12.998Z,925.1
2016-10-07T11:46:23.679Z,925.08
2016-10-07T11:47:34.821Z,925.16
2016-10-07T11:48:45.953Z,925.17
2016-10-07T11:49:56.792Z,925.28
2016-10-07T11:51:07.545Z,925.32
2016-10-07T11:52:18.233Z,925.37
2016-10-07T11:53:28.925Z,925.46
2016-10-07T11:54:40.028Z,925.47
2016-10-07T11:55:51.250Z,925.51
2016-10-07T11:57:01.911Z,925.47
2016-10-07T11:58:13.034Z,925.46
2016-10-07T11:59:24.139Z,925.42
2016-10-07T12:00:34.793Z,925.48
2016-10-07T12:01:46.032Z,925.8
2016-10-07T12:02:56.751Z,928.29
2016-10-07T12:04:07.807Z,927.04
2016-10-07T12:05:18.938Z,931.21
2016-10-07T12:06:29.612Z,929.2
2016-10-07T12:07:40.864Z,926.08
2016-10-07T12:08:52.079Z,925.76
2016-10-07T12:10:02.781Z,925.67
2016-10-07T12:11:13.969Z,925.63
2016-10-07T12:12:25.091Z,925.5
2016-10-07T12:13:35.835Z,925.5
2016-10-07T12:14:46.707Z,925.42
2016-10-07T12:15:57.382Z,925.49
2016-10-07T12:17:08.067Z,925.48
2016-10-07T12:18:18.800Z,925.45
2016-10-07T12:19:30.080Z,925.4
2016-10-07T12:20:41.170Z,925.45
2016-10-07T12:21:52.281Z,925.41
2016-10-07T12:23:03.387Z,925.47
2016-10-07T12:24:14.905Z,925.5
2016-10-07T12:25:26.358Z,925.57
2016-10-07T12:26:37.054Z,925.51
2016-10-07T12:27:47.813Z,925.47
2016-10-07T12:28:58.543Z,925.46
2016-10-07T12:30:09.281Z,925.44
2016-10-07T12:31:20.584Z,925.45
2016-10-07T12:32:32.036Z,925.42
2016-10-07T12:33:42.738Z,925.44
2016-10-07T12:34:54.636Z,925.5
2016-10-07T12:36:06.190Z,925.49
2016-10-07T12:37:16.979Z,925.48
2016-10-07T12:38:27.743Z,925.5
2016-10-07T12:39:38.421Z,925.5
2016-10-07T12:40:49.535Z,925.58
2016-10-07T12:42:00.579Z,925.63
2016-10-07T12:43:12.568Z,925.67
2016-10-07T12:44:23.607Z,925.69
2016-10-07T12:45:35.094Z,925.74
2016-10-07T12:46:45.788Z,925.66
2016-10-07T12:47:57.270Z,925.63
2016-10-07T12:49:08.247Z,925.64
2016-10-07T12:50:18.976Z,925.64
2016-10-07T12:51:30.046Z,925.75
2016-10-07T12:52:41.095Z,925.92
2016-10-07T12:53:52.183Z,925.96
2016-10-07T12:55:03.522Z,925.99
2016-10-07T12:56:14.548Z,926.18
2016-10-07T12:57:25.277Z,926.18
2016-10-07T12:58:36.388Z,926.12
2016-10-07T12:59:48.004Z,926.11
2016-10-07T13:00:59.811Z,926.24
2016-10-07T13:02:10.416Z,926.4
2016-10-07T13:03:21.567Z,926.47
2016-10-07T13:04:33.857Z,927.88
2016-10-07T13:05:44.994Z,927.3
2016-10-07T13:06:55.831Z,926.99
2016-10-07T13:08:06.517Z,926.9
2016-10-07T13:09:18.124Z,927.09
2016-10-07T13:10:29.213Z,927.35
2016-10-07T13:11:40.292Z,927.63
2016-10-07T13:12:51.121Z,936.38
2016-10-07T13:14:01.877Z,927.73
2016-10-07T13:15:12.970Z,926.74
2016-10-07T13:16:23.747Z,926.73
2016-10-07T13:17:34.519Z,926.27
2016-10-07T13:18:45.967Z,926.02
2016-10-07T13:19:57.095Z,925.9
2016-10-07T13:21:08.336Z,925.84
2016-10-07T13:22:19.445Z,925.91
2016-10-07T13:23:30.482Z,926.32
2016-10-07T13:24:41.156Z,926.18
2016-10-07T13:25:52.267Z,926.21
2016-10-07T13:27:02.968Z,926.1
2016-10-07T13:28:13.697Z,926.13
2016-10-07T13:29:24.384Z,926.23
2016-10-07T13:30:35.032Z,926.55
2016-10-07T13:31:45.585Z,926.75
2016-10-07T13:32:56.496Z,926.75
2016-10-07T13:34:07.096Z,926.45
2016-10-07T13:35:17.613Z,926.75
2016-10-07T13:36:28.295Z,926.51
2016-10-07T13:37:38.862Z,926.29
2016-10-07T13:38:49.408Z,926.63
2016-10-07T13:39:59.936Z,926.26
2016-10-07T13:41:10.463Z,926.92
2016-10-07T13:42:21.130Z,926.71
2016-10-07T13:43:31.675Z,926.33
2016-10-07T13:44:42.230Z,926.97
2016-10-07T13:45:52.850Z,926.32
2016-10-07T13:47:03.438Z,926.41
2016-10-07T13:48:14.122Z,926.4
2016-10-07T13:49:24.666Z,926.17
2016-10-07T13:50:35.644Z,925.85
2016-10-07T13:51:46.209Z,925.76
2016-10-07T13:52:56.777Z,925.77
2016-10-07T13:54:07.453Z,925.75
2016-10-07T13:55:17.942Z,925.64
2016-10-07T13:56:28.464Z,925.58
2016-10-07T13:57:39.339Z,925.57
2016-10-07T13:58:49.909Z,925.49
2016-10-07T14:00:00.553Z,925.51
2016-10-07T14:01:11.137Z,925.49
2016-10-07T14:02:21.707Z,925.53
2016-10-07T14:03:32.232Z,925.55
2016-10-07T14:04:42.795Z,925.56
2016-10-07T14:05:53.486Z,925.53
2016-10-07T14:07:04.010Z,925.55
2016-10-07T14:08:14.558Z,925.48
2016-10-07T14:09:25.497Z,925.51
2016-10-07T14:10:36.033Z,925.61
2016-10-07T14:11:46.643Z,925.74
2016-10-07T14:12:57.125Z,926.07
2016-10-07T14:14:07.588Z,926.09
2016-10-07T14:15:18.090Z,925.95
2016-10-07T14:16:28.564Z,926.15
2016-10-07T14:17:39.159Z,925.97
2016-10-07T14:18:50.046Z,925.87
2016-10-07T14:20:00.556Z,926.4
2016-10-07T14:21:11.036Z,926.12
2016-10-07T14:22:21.533Z,925.92
2016-10-07T14:23:32.148Z,926.07
2016-10-07T14:24:42.634Z,926.1
2016-10-07T14:25:53.129Z,926.02
2016-10-07T14:27:03.655Z,925.82
2016-10-07T14:28:14.206Z,925.71
2016-10-07T14:29:24.844Z,925.69
2016-10-07T14:30:35.361Z,925.73
2016-10-07T14:31:45.861Z,925.78
2016-10-07T14:32:56.354Z,925.76
2016-10-07T14:34:06.833Z,925.75
2016-10-07T14:35:17.436Z,925.79
2016-10-07T14:36:28.018Z,925.63
2016-10-07T14:37:38.543Z,925.55
2016-10-07T14:38:49.012Z,925.52
2016-10-07T14:39:59.494Z,925.49
2016-10-07T14:41:10.006Z,925.45
2016-10-07T14:42:20.996Z,925.43
2016-10-07T14:43:31.508Z,925.46
2016-10-07T14:44:42.046Z,925.87
2016-10-07T14:45:52.565Z,926.05